createdAt,value
2022-09-25T00:02:08.748Z,15.70
2022-09-25T00:04:54.056Z,15.70
2022-09-25T00:07:39.378Z,15.60
2022-09-25T00:10:25.635Z,15.60
2022-09-25T00:13:11.735Z,15.60
2022-09-25T00:15:57.804Z,15.60
2022-09-25T00:19:02.437Z,15.50
2022-09-25T00:21:52.900Z,15.50
2022-09-25T00:24:38.468Z,15.50
2022-09-25T00:27:23.839Z,15.50
2022-09-25T00:30:10.873Z,15.50
2022-09-25T00:32:56.443Z,15.50
2022-09-25T00:35:41.744Z,15.50
2022-09-25T00:38:27.087Z,15.50
2022-09-25T00:41:12.440Z,15.50
2022-09-25T00:43:58.927Z,15.50
2022-09-25T00:46:44.735Z,15.40
2022-09-25T00:49:29.879Z,15.30
2022-09-25T00:52:15.750Z,15.40
2022-09-25T00:55:05.233Z,15.40
2022-09-25T00:57:54.051Z,15.40
2022-09-25T01:00:39.726Z,15.40
2022-09-25T01:03:27.368Z,15.40
2022-09-25T01:06:14.796Z,15.40
2022-09-25T01:09:00.278Z,15.30
2022-09-25T01:11:46.131Z,15.30
2022-09-25T01:14:34.144Z,15.20
2022-09-25T01:17:52.253Z,15.20
2022-09-25T01:21:05.438Z,15.20
2022-09-25T01:24:11.184Z,15.20
2022-09-25T01:27:18.093Z,15.10
2022-09-25T01:30:11.140Z,15.00
2022-09-25T01:33:13.226Z,14.90
2022-09-25T01:36:27.255Z,15.00
2022-09-25T01:39:22.615Z,15.10
2022-09-25T01:42:21.665Z,15.00
2022-09-25T01:45:10.881Z,15.10
2022-09-25T01:47:59.584Z,14.90
2022-09-25T01:50:50.878Z,15.00
2022-09-25T01:53:45.847Z,14.90
2022-09-25T01:56:40.731Z,14.90
2022-09-25T01:59:35.585Z,14.90
2022-09-25T02:02:26.766Z,15.00
2022-09-25T02:05:20.323Z,14.90
2022-09-25T02:08:11.014Z,14.90
2022-09-25T02:11:02.256Z,14.90
2022-09-25T02:13:54.090Z,14.90
2022-09-25T02:16:43.786Z,14.90
2022-09-25T02:19:47.819Z,14.90
2022-09-25T02:22:35.156Z,15.00
2022-09-25T02:25:49.363Z,15.00
2022-09-25T02:28:35.743Z,15.00
2022-09-25T02:31:26.243Z,15.00
2022-09-25T02:34:15.101Z,15.00
2022-09-25T02:37:00.630Z,15.00
2022-09-25T02:39:54.571Z,15.00
2022-09-25T02:42:52.227Z,15.00
2022-09-25T02:46:09.490Z,15.00
2022-09-25T02:49:05.983Z,15.00
2022-09-25T02:52:06.545Z,15.00
2022-09-25T02:55:12.119Z,15.00
2022-09-25T02:58:04.443Z,15.00
2022-09-25T03:00:52.089Z,15.00
2022-09-25T03:03:38.424Z,15.00
2022-09-25T03:06:25.168Z,15.00
2022-09-25T03:09:11.582Z,15.00
2022-09-25T03:11:57.518Z,15.10
2022-09-25T03:14:43.006Z,15.10
2022-09-25T03:17:28.703Z,15.20
2022-09-25T03:20:13.807Z,15.10
2022-09-25T03:22:59.178Z,15.20
2022-09-25T03:25:49.757Z,15.20
2022-09-25T03:28:35.564Z,15.20
2022-09-25T03:31:21.082Z,15.20
2022-09-25T03:34:06.377Z,15.20
2022-09-25T03:36:51.689Z,15.20
2022-09-25T03:39:36.968Z,15.20
2022-09-25T03:42:22.357Z,15.20
2022-09-25T03:45:10.897Z,15.20
2022-09-25T03:47:56.263Z,15.20
2022-09-25T03:50:41.953Z,15.20
2022-09-25T03:53:27.696Z,15.10
2022-09-25T03:56:15.088Z,15.20
2022-09-25T03:59:00.539Z,15.20
2022-09-25T04:01:47.460Z,15.20
2022-09-25T04:04:32.597Z,15.20
2022-09-25T04:07:18.160Z,15.10
2022-09-25T04:10:03.703Z,15.20
2022-09-25T04:12:54.408Z,15.20
2022-09-25T04:15:42.422Z,15.10
2022-09-25T04:18:33.957Z,15.00
2022-09-25T04:21:19.324Z,15.00
2022-09-25T04:24:23.271Z,15.00
2022-09-25T04:27:09.231Z,15.10
2022-09-25T04:29:54.668Z,15.10
2022-09-25T04:32:58.564Z,15.10
2022-09-25T04:35:44.148Z,15.10
2022-09-25T04:38:31.623Z,15.10
2022-09-25T04:41:19.601Z,15.00
2022-09-25T04:44:05.683Z,15.10
2022-09-25T04:46:52.440Z,15.10
2022-09-25T04:49:38.508Z,15.10
2022-09-25T04:52:23.898Z,15.10
2022-09-25T04:55:09.476Z,15.20
2022-09-25T04:57:59.366Z,15.10
2022-09-25T05:00:44.887Z,15.20
2022-09-25T05:03:30.251Z,15.10
2022-09-25T05:06:15.615Z,15.10
2022-09-25T05:09:00.692Z,15.10
2022-09-25T05:11:47.144Z,15.10
2022-09-25T05:14:32.411Z,15.10
2022-09-25T05:17:17.784Z,15.10
2022-09-25T05:20:03.621Z,15.20
2022-09-25T05:22:48.856Z,15.10
2022-09-25T05:25:34.301Z,15.10
2022-09-25T05:28:19.739Z,15.10
2022-09-25T05:31:06.136Z,15.20
2022-09-25T05:33:52.558Z,15.10
2022-09-25T05:36:37.839Z,15.10
2022-09-25T05:39:23.202Z,15.20
2022-09-25T05:42:08.947Z,15.40
2022-09-25T05:44:54.360Z,15.10
2022-09-25T05:47:41.010Z,15.10
2022-09-25T05:50:26.996Z,15.20
2022-09-25T05:53:12.117Z,15.20
2022-09-25T05:55:59.475Z,15.20
2022-09-25T05:58:44.941Z,15.20
2022-09-25T06:01:30.290Z,15.20
2022-09-25T06:04:15.563Z,15.20
2022-09-25T06:07:01.536Z,15.30
2022-09-25T06:09:46.655Z,15.30
2022-09-25T06:12:32.162Z,15.20
2022-09-25T06:15:17.514Z,15.30
2022-09-25T06:18:06.362Z,15.30
2022-09-25T06:20:58.252Z,15.30
2022-09-25T06:23:48.593Z,15.30
2022-09-25T06:26:34.123Z,15.30
2022-09-25T06:29:19.762Z,15.30
2022-09-25T06:32:05.112Z,15.30
2022-09-25T06:34:50.752Z,15.40
2022-09-25T06:37:36.171Z,15.30
2022-09-25T06:40:21.629Z,15.40
2022-09-25T06:43:10.173Z,15.40
2022-09-25T06:45:58.867Z,15.40
2022-09-25T06:48:44.914Z,15.40
2022-09-25T06:51:35.220Z,15.40
2022-09-25T06:54:20.646Z,15.40
2022-09-25T06:57:06.109Z,15.40
2022-09-25T06:59:51.452Z,15.50
2022-09-25T07:02:55.481Z,15.40
2022-09-25T07:05:42.560Z,15.50
2022-09-25T07:08:28.399Z,15.40
2022-09-25T07:11:23.034Z,15.50
2022-09-25T07:14:10.224Z,15.50
2022-09-25T07:16:55.380Z,15.50
2022-09-25T07:19:40.749Z,15.50
2022-09-25T07:22:26.048Z,15.50
2022-09-25T07:25:12.577Z,15.50
2022-09-25T07:27:59.054Z,15.50
2022-09-25T07:30:59.119Z,15.50
2022-09-25T07:33:53.087Z,15.50
2022-09-25T07:36:40.395Z,15.50
2022-09-25T07:39:26.113Z,15.50
2022-09-25T07:42:11.724Z,15.60
2022-09-25T07:44:57.152Z,15.60
2022-09-25T07:47:42.400Z,15.60
2022-09-25T07:50:32.159Z,15.50
2022-09-25T07:53:18.661Z,15.50
2022-09-25T07:56:06.967Z,15.60
2022-09-25T07:58:53.775Z,15.50
2022-09-25T08:01:43.716Z,15.50
2022-09-25T08:04:31.160Z,15.50
2022-09-25T08:07:16.461Z,15.40
2022-09-25T08:10:02.041Z,15.40
2022-09-25T08:12:47.494Z,15.40
2022-09-25T08:15:33.334Z,15.50
2022-09-25T08:18:18.787Z,15.60
2022-09-25T08:21:05.101Z,15.60
2022-09-25T08:23:52.344Z,15.60
2022-09-25T08:26:37.571Z,15.60
2022-09-25T08:29:23.123Z,15.50
2022-09-25T08:32:08.708Z,15.40
2022-09-25T08:34:55.144Z,15.40
2022-09-25T08:37:42.006Z,15.50
2022-09-25T08:40:31.132Z,15.50
2022-09-25T08:43:21.581Z,15.50
2022-09-25T08:46:44.581Z,15.40
2022-09-25T08:49:32.890Z,15.50
2022-09-25T08:52:21.491Z,15.50
2022-09-25T08:55:17.044Z,15.50
2022-09-25T08:58:02.478Z,15.50
2022-09-25T09:00:49.071Z,15.30
2022-09-25T09:03:45.672Z,15.40
2022-09-25T09:06:32.471Z,15.60
2022-09-25T09:09:23.914Z,15.70
2022-09-25T09:12:33.153Z,15.80
2022-09-25T09:15:35.560Z,15.90
2022-09-25T09:18:27.126Z,15.80
2022-09-25T09:21:35.716Z,16.10
2022-09-25T09:24:40.413Z,16.20
2022-09-25T09:27:53.446Z,16.10
2022-09-25T09:30:53.508Z,16.20
2022-09-25T09:34:46.482Z,16.20
2022-09-25T09:37:54.961Z,16.30
2022-09-25T09:41:02.037Z,16.60
2022-09-25T09:44:23.814Z,16.80
2022-09-25T09:47:12.151Z,16.90
2022-09-25T09:50:18.877Z,16.80
2022-09-25T09:53:09.802Z,16.80
2022-09-25T09:56:05.642Z,16.80
2022-09-25T09:58:55.583Z,16.90
2022-09-25T10:01:43.405Z,16.90
2022-09-25T10:04:37.802Z,16.80
2022-09-25T10:07:27.008Z,16.80
2022-09-25T10:10:15.975Z,16.90
2022-09-25T10:13:06.612Z,16.70
2022-09-25T10:15:57.260Z,16.50
2022-09-25T10:18:54.634Z,16.80
2022-09-25T10:21:46.275Z,16.90
2022-09-25T10:24:52.884Z,17.10
2022-09-25T10:27:45.911Z,17.30
2022-09-25T10:30:31.255Z,17.30
2022-09-25T10:33:23.184Z,17.70
2022-09-25T10:36:08.420Z,17.70
2022-09-25T10:39:05.073Z,17.80
2022-09-25T10:42:00.964Z,17.80
2022-09-25T10:44:46.192Z,17.90
2022-09-25T10:47:50.576Z,18.00
2022-09-25T10:50:36.919Z,18.30
2022-09-25T10:53:28.841Z,18.70
2022-09-25T10:56:32.900Z,18.80
2022-09-25T10:59:23.325Z,18.90
2022-09-25T11:02:31.421Z,19.00
2022-09-25T11:05:31.417Z,18.80
2022-09-25T11:08:16.843Z,18.70
2022-09-25T11:11:03.179Z,18.70
2022-09-25T11:13:54.580Z,18.90
2022-09-25T11:16:54.007Z,19.00
2022-09-25T11:19:39.207Z,18.80
2022-09-25T11:22:37.779Z,19.10
2022-09-25T11:25:32.082Z,19.10
2022-09-25T11:28:49.099Z,19.10
2022-09-25T11:31:42.961Z,19.20
2022-09-25T11:34:40.234Z,19.40
2022-09-25T11:37:50.217Z,19.60
2022-09-25T11:41:15.978Z,19.90
2022-09-25T11:44:32.756Z,19.90
2022-09-25T11:47:46.009Z,20.00
2022-09-25T11:50:48.101Z,20.00
2022-09-25T11:54:12.424Z,19.80
2022-09-25T11:57:36.490Z,19.90
2022-09-25T12:00:42.021Z,19.80
2022-09-25T12:04:04.755Z,19.60
2022-09-25T12:07:05.918Z,19.80
2022-09-25T12:10:19.372Z,20.00
2022-09-25T12:13:40.575Z,19.90
2022-09-25T12:16:48.165Z,19.60
2022-09-25T12:20:11.468Z,19.60
2022-09-25T12:23:25.182Z,19.70
2022-09-25T12:26:41.614Z,19.60
2022-09-25T12:29:49.485Z,19.50
2022-09-25T12:32:53.256Z,19.50
2022-09-25T12:35:57.121Z,19.30
2022-09-25T12:38:55.224Z,19.20
2022-09-25T12:41:50.708Z,19.20
2022-09-25T12:44:54.872Z,19.20
2022-09-25T12:48:13.939Z,19.10
2022-09-25T12:51:11.179Z,18.90
2022-09-25T12:54:01.506Z,18.90
2022-09-25T12:56:51.289Z,18.80
2022-09-25T12:59:52.930Z,18.90
2022-09-25T13:03:11.451Z,18.90
2022-09-25T13:06:11.794Z,18.90
2022-09-25T13:09:30.711Z,18.80
2022-09-25T13:12:22.831Z,18.20
2022-09-25T13:15:16.003Z,17.90
2022-09-25T13:18:02.885Z,17.30
2022-09-25T13:20:49.081Z,16.90
2022-09-25T13:23:37.545Z,16.30
2022-09-25T13:26:27.003Z,16.10
2022-09-25T13:29:30.582Z,16.10
2022-09-25T13:32:23.225Z,16.00
2022-09-25T13:35:19.554Z,16.00
2022-09-25T13:38:50.066Z,16.00
2022-09-25T13:41:35.480Z,16.00
2022-09-25T13:44:43.050Z,16.20
2022-09-25T13:47:32.123Z,16.10
2022-09-25T13:50:19.731Z,16.20
2022-09-25T13:53:18.297Z,16.40
2022-09-25T13:56:03.341Z,16.40
2022-09-25T13:59:19.291Z,16.50
2022-09-25T14:02:37.192Z,16.60
2022-09-25T14:05:27.024Z,16.60
2022-09-25T14:08:17.487Z,16.60
2022-09-25T14:11:05.409Z,16.60
2022-09-25T14:13:55.187Z,16.60
2022-09-25T14:16:43.222Z,16.60
2022-09-25T14:19:39.810Z,16.70
2022-09-25T14:22:46.063Z,16.70
2022-09-25T14:25:36.113Z,16.70
2022-09-25T14:28:30.407Z,16.80
2022-09-25T14:31:37.462Z,16.90
2022-09-25T14:34:38.081Z,17.10
2022-09-25T14:37:39.869Z,17.20
2022-09-25T14:40:33.936Z,17.30
2022-09-25T14:43:42.439Z,17.40
2022-09-25T14:46:28.241Z,17.30
2022-09-25T14:49:30.263Z,17.30
2022-09-25T14:52:24.035Z,17.20
2022-09-25T14:55:16.352Z,17.30
2022-09-25T14:58:02.674Z,17.30
2022-09-25T15:00:54.017Z,17.30
2022-09-25T15:03:43.898Z,17.20
2022-09-25T15:06:32.797Z,17.20
2022-09-25T15:09:36.585Z,17.30
2022-09-25T15:12:29.726Z,17.20
2022-09-25T15:15:16.759Z,17.20
2022-09-25T15:18:02.775Z,17.20
2022-09-25T15:20:49.030Z,17.20
2022-09-25T15:23:35.347Z,17.20
2022-09-25T15:26:21.450Z,17.40
2022-09-25T15:29:18.350Z,17.30
2022-09-25T15:32:05.136Z,17.40
2022-09-25T15:34:50.712Z,17.40
2022-09-25T15:37:37.483Z,17.20
2022-09-25T15:40:28.575Z,17.20
2022-09-25T15:43:16.184Z,17.10
2022-09-25T15:46:07.860Z,17.10
2022-09-25T15:48:56.194Z,17.10
2022-09-25T15:51:51.923Z,17.10
2022-09-25T15:54:44.386Z,17.10
2022-09-25T15:57:31.933Z,17.20
2022-09-25T16:00:44.239Z,17.10
2022-09-25T16:03:49.803Z,17.10
2022-09-25T16:06:43.578Z,17.10
2022-09-25T16:09:32.285Z,17.10
2022-09-25T16:12:27.417Z,17.10
2022-09-25T16:15:27.570Z,17.00
2022-09-25T16:18:37.243Z,17.00
2022-09-25T16:21:31.647Z,17.00
2022-09-25T16:24:23.214Z,17.00
2022-09-25T16:27:22.738Z,17.10
2022-09-25T16:30:17.087Z,17.00
2022-09-25T16:33:16.514Z,17.00
2022-09-25T16:36:14.428Z,17.00
2022-09-25T16:39:10.239Z,16.90
2022-09-25T16:41:56.404Z,16.90
2022-09-25T16:44:47.090Z,16.90
2022-09-25T16:47:34.206Z,16.90
2022-09-25T16:50:21.271Z,16.80
2022-09-25T16:53:07.008Z,16.80
2022-09-25T16:55:53.169Z,16.70
2022-09-25T16:58:38.304Z,16.60
2022-09-25T17:01:26.444Z,16.60
2022-09-25T17:04:13.451Z,16.60
2022-09-25T17:06:58.755Z,16.70
2022-09-25T17:09:44.176Z,16.70
2022-09-25T17:12:31.272Z,16.60
2022-09-25T17:15:48.002Z,16.50
2022-09-25T17:18:33.092Z,16.50
2022-09-25T17:21:20.033Z,16.40
2022-09-25T17:24:05.320Z,16.40
2022-09-25T17:26:51.902Z,16.30
2022-09-25T17:29:38.453Z,16.20
2022-09-25T17:32:23.786Z,16.20
2022-09-25T17:35:31.115Z,16.20
2022-09-25T17:38:16.561Z,16.20
2022-09-25T17:41:06.016Z,16.20
2022-09-25T17:43:52.573Z,16.20
2022-09-25T17:46:38.746Z,16.20
2022-09-25T17:49:25.456Z,16.10
2022-09-25T17:52:16.400Z,16.10
2022-09-25T17:55:01.415Z,16.10
2022-09-25T17:57:47.592Z,16.10
2022-09-25T18:00:32.717Z,16.00
2022-09-25T18:03:18.868Z,16.00
2022-09-25T18:06:05.093Z,16.00
2022-09-25T18:08:51.291Z,16.00
2022-09-25T18:11:36.746Z,16.00
2022-09-25T18:14:22.229Z,16.00
2022-09-25T18:17:07.523Z,16.00
2022-09-25T18:20:11.408Z,15.90
2022-09-25T18:22:56.857Z,16.00
2022-09-25T18:25:42.229Z,16.00
2022-09-25T18:28:29.880Z,16.00
2022-09-25T18:31:15.060Z,15.90
2022-09-25T18:34:00.308Z,16.00
2022-09-25T18:36:45.948Z,16.00
2022-09-25T18:39:31.518Z,16.00
2022-09-25T18:42:17.904Z,16.00
2022-09-25T18:45:05.105Z,15.90
2022-09-25T18:47:50.356Z,15.80
2022-09-25T18:50:37.292Z,15.80
2022-09-25T18:53:22.649Z,15.90
2022-09-25T18:56:08.900Z,15.90
2022-09-25T18:58:54.550Z,15.90
2022-09-25T19:01:40.379Z,15.80
2022-09-25T19:04:26.224Z,15.80
2022-09-25T19:07:11.259Z,15.80
2022-09-25T19:09:58.320Z,15.80
2022-09-25T19:12:44.964Z,15.80
2022-09-25T19:15:30.530Z,15.90
2022-09-25T19:18:16.124Z,15.90
2022-09-25T19:21:01.825Z,15.80
2022-09-25T19:23:48.356Z,15.90
2022-09-25T19:26:33.643Z,15.90
2022-09-25T19:29:19.053Z,15.80
2022-09-25T19:32:10.118Z,15.70
2022-09-25T19:34:55.204Z,15.80
2022-09-25T19:37:42.022Z,15.80
2022-09-25T19:40:36.518Z,15.90
2022-09-25T19:43:21.872Z,15.90
2022-09-25T19:46:07.544Z,15.80
2022-09-25T19:48:52.903Z,15.80
2022-09-25T19:51:38.686Z,15.80
2022-09-25T19:54:23.730Z,15.80
2022-09-25T19:57:09.206Z,15.70
2022-09-25T19:59:54.548Z,15.80
2022-09-25T20:02:43.745Z,15.70
2022-09-25T20:05:29.172Z,15.80
2022-09-25T20:08:14.616Z,15.80
2022-09-25T20:11:00.223Z,15.80
2022-09-25T20:13:46.550Z,15.70
2022-09-25T20:16:32.170Z,15.70
2022-09-25T20:19:19.240Z,15.70
2022-09-25T20:22:05.938Z,15.70
2022-09-25T20:24:51.492Z,15.60
2022-09-25T20:27:37.241Z,15.60
2022-09-25T20:30:24.396Z,15.60
2022-09-25T20:33:09.661Z,15.60
2022-09-25T20:35:55.055Z,15.60
2022-09-25T20:38:40.878Z,15.60
2022-09-25T20:41:26.344Z,15.60
2022-09-25T20:44:11.552Z,15.60
2022-09-25T20:46:56.770Z,15.60
2022-09-25T20:49:42.805Z,15.70
2022-09-25T20:52:30.959Z,15.60
2022-09-25T20:55:16.283Z,15.60
2022-09-25T20:58:01.424Z,15.60
2022-09-25T21:00:47.383Z,15.60
2022-09-25T21:03:35.857Z,15.60
2022-09-25T21:06:23.914Z,15.60
2022-09-25T21:09:29.658Z,15.60
2022-09-25T21:12:14.768Z,15.60
2022-09-25T21:15:00.073Z,15.60
2022-09-25T21:17:45.480Z,15.60
2022-09-25T21:20:30.901Z,15.60
2022-09-25T21:23:16.148Z,15.60
2022-09-25T21:26:10.696Z,15.60
2022-09-25T21:28:58.035Z,15.60
2022-09-25T21:31:49.420Z,15.60
2022-09-25T21:34:35.605Z,15.60
2022-09-25T21:37:20.863Z,15.60
2022-09-25T21:40:06.977Z,15.60
2022-09-25T21:42:52.185Z,15.60
2022-09-25T21:45:38.039Z,15.60
2022-09-25T21:48:23.361Z,15.60
2022-09-25T21:51:08.979Z,15.60
2022-09-25T21:53:55.319Z,15.70
2022-09-25T21:56:41.294Z,15.60
2022-09-25T21:59:26.644Z,15.60
2022-09-25T22:02:11.975Z,15.60
2022-09-25T22:04:57.440Z,15.50
2022-09-25T22:07:42.901Z,15.50
2022-09-25T22:10:27.822Z,15.50
2022-09-25T22:13:13.246Z,15.40
2022-09-25T22:16:06.608Z,15.40
2022-09-25T22:18:53.337Z,15.40
2022-09-25T22:21:39.416Z,15.40
2022-09-25T22:24:25.211Z,15.40
2022-09-25T22:27:10.304Z,15.30
2022-09-25T22:29:55.723Z,15.30
2022-09-25T22:32:41.186Z,15.20
2022-09-25T22:35:26.699Z,15.20
2022-09-25T22:38:12.244Z,15.20
2022-09-25T22:41:01.750Z,15.20
2022-09-25T22:43:50.530Z,15.20
2022-09-25T22:46:36.021Z,15.30
2022-09-25T22:49:21.462Z,15.20
2022-09-25T22:52:06.742Z,15.20
2022-09-25T22:54:52.064Z,15.20
2022-09-25T22:57:38.946Z,15.20
2022-09-25T23:00:24.250Z,15.20
2022-09-25T23:03:10.436Z,15.20
2022-09-25T23:05:57.384Z,15.20
2022-09-25T23:08:42.377Z,15.20
2022-09-25T23:11:28.853Z,15.30
2022-09-25T23:14:19.709Z,15.30
2022-09-25T23:17:05.006Z,15.30
2022-09-25T23:19:50.355Z,15.30
2022-09-25T23:22:35.576Z,15.30
2022-09-25T23:25:23.248Z,15.10
2022-09-25T23:28:08.513Z,15.10
2022-09-25T23:30:53.967Z,14.80
2022-09-25T23:33:40.007Z,14.90
2022-09-25T23:36:26.254Z,14.90
2022-09-25T23:39:18.499Z,14.80
2022-09-25T23:42:03.824Z,14.80
2022-09-25T23:44:49.498Z,14.90
2022-09-25T23:47:34.807Z,14.90
2022-09-25T23:50:20.043Z,14.90
2022-09-25T23:53:05.921Z,14.90
2022-09-25T23:55:51.356Z,14.90
2022-09-25T23:58:36.883Z,14.90
